RJNF(METAR)
10/19 16:00
RJNF 190700Z 08001KT 9999 FEW015 FEW030 OVCXXX 16/12 Q1016 RMK
A3003=
戻る
トップページへ戻る
IMOC Co,.Ltd.